This is the latest recevied weather packets stored in our database for station/object KBTL-WX. If no packets are shown the sender has not sent any weather packets the latest 10 day(s).
| Time | Temp. | Humidity | Pressure | Rain* | Wind** | Luminosity | Snow |
|---|---|---|---|---|---|---|---|
| 1778027428 | 10° C | 38% | 976.8 hPa | 0 mm | - | - | - |
| 1778026514 | 10° C | 38% | 976.8 hPa | 0 mm | - | - | - |
| 1778025638 | 10° C | 38% | 976.8 hPa | 0 mm | - | - | - |
| 1778024714 | 10.56° C | 39% | 976.4 hPa | 0 mm | - | - | - |
| 1778023831 | 10.56° C | 38% | 976.6 hPa | 0 mm | - | - | - |
| 1778022914 | 10.56° C | 38% | 976.6 hPa | 0 mm | - | - | - |
| 1778022034 | 11.11° C | 38% | 976.6 hPa | 0 mm | - | - | - |
| 1778021114 | 11.11° C | 37% | 976.6 hPa | 0 mm | - | - | - |
| 1778020232 | 11.11° C | 39% | 976.8 hPa | 0 mm | - | - | - |
| 1778019313 | 11.67° C | 39% | 976.9 hPa | 0 mm | - | - | - |
| 1778018438 | 12.22° C | 39% | 976.9 hPa | 0 mm | - | - | - |
| 1778017513 | 12.22° C | 39% | 976.7 hPa | 0 mm | - | - | - |
| 1778016633 | 11.67° C | 38% | 976.5 hPa | 0 mm | - | - | - |
| 1778015713 | 12.22° C | 38% | 976.5 hPa | 0 mm | - | - | - |
| 1778014837 | 12.22° C | 38% | 976.5 hPa | 0 mm | - | - | - |
| 1778013913 | 12.22° C | 43% | 976.8 hPa | 0 mm | - | - | - |
| 1778013033 | 12.22° C | 43% | 975.8 hPa | 0 mm | - | - | - |
| 1778012113 | 12.22° C | 43% | 975.8 hPa | 0 mm | - | - | - |
| 1778011236 | 12.22° C | 43% | 975.8 hPa | 0 mm | - | - | - |
| 1778010313 | 12.22° C | 49% | 975.8 hPa | 0 mm | - | - | - |
| 1778009429 | 11.67° C | 49% | 975.8 hPa | 0 mm | - | - | - |
| 1778008516 | 11.67° C | 49% | 975.8 hPa | 0 mm | - | - | - |
| 1778007634 | 11.11° C | 49% | 975.8 hPa | 0 mm | - | - | - |
| 1778006716 | 10.56° C | 59% | 976.3 hPa | 0 mm | - | - | - |
| 1778005835 | 10.56° C | 55% | 975.6 hPa | 0 mm | - | - | - |
* Rain latest hour (hover to see other rain measurements)
** Current wind speed in m/s (hover to see current wind gust speed)